FIN531 EFHK-EFRO
Flight info
| Callsign | FIN531 |
|---|---|
| Flight time | 1h 12m |
| Altitude | 36000 |
| Route | TEVRU Y75 NEPIX |
| Aircraft | A320/M-SDE3FGHIRWY/LB1 |
Departure
| Time | 2026-04-23 20:15 |
|---|---|
| Airport | Helsinki Vantaa Airport (EFHK) |
Arrival
| Time | 2026-04-23 21:27 |
|---|---|
| Airport | Rovaniemi Airport (EFRO) |
| Time | Latitude | Longitude | Altitude | Speed | Heading |
|---|---|---|---|---|---|
| 2026-04-23 19:23 | 60.31906 | 24.96622 | 167 ft | 0 kts | 137° |
| 2026-04-23 20:05 | 60.31914 | 24.96608 | 166 ft | 3 kts | 141° |
| 2026-04-23 20:05 | 60.31930 | 24.96584 | 166 ft | 3 kts | 152° |
| 2026-04-23 20:05 | 60.31948 | 24.96569 | 167 ft | 3 kts | 173° |
| 2026-04-23 20:06 | 60.31966 | 24.96571 | 167 ft | 3 kts | 215° |
| 2026-04-23 20:06 | 60.31973 | 24.96583 | 167 ft | 1 kts | 227° |
| 2026-04-23 20:06 | 60.31974 | 24.96585 | 167 ft | 0 kts | 227° |
| 2026-04-23 20:09 | 60.31969 | 24.96575 | 167 ft | 4 kts | 227° |
| 2026-04-23 20:09 | 60.31933 | 24.96494 | 167 ft | 12 kts | 228° |
| 2026-04-23 20:09 | 60.31870 | 24.96350 | 167 ft | 14 kts | 234° |
| 2026-04-23 20:10 | 60.31868 | 24.96157 | 167 ft | 15 kts | 298° |
| 2026-04-23 20:10 | 60.31919 | 24.95979 | 168 ft | 15 kts | 265° |
| 2026-04-23 20:10 | 60.31868 | 24.95804 | 169 ft | 15 kts | 231° |
| 2026-04-23 20:10 | 60.31791 | 24.95647 | 170 ft | 16 kts | 230° |
| 2026-04-23 20:11 | 60.31712 | 24.95482 | 171 ft | 17 kts | 226° |
| 2026-04-23 20:11 | 60.31629 | 24.95295 | 170 ft | 19 kts | 229° |
| 2026-04-23 20:11 | 60.31537 | 24.95097 | 170 ft | 20 kts | 228° |
| 2026-04-23 20:11 | 60.31432 | 24.94869 | 166 ft | 24 kts | 227° |
| 2026-04-23 20:12 | 60.31312 | 24.94601 | 160 ft | 28 kts | 229° |
| 2026-04-23 20:12 | 60.31179 | 24.94309 | 159 ft | 27 kts | 227° |
| 2026-04-23 20:12 | 60.31068 | 24.94067 | 158 ft | 19 kts | 227° |
| 2026-04-23 20:12 | 60.30984 | 24.93866 | 159 ft | 18 kts | 244° |
| 2026-04-23 20:13 | 60.30990 | 24.93732 | 160 ft | 1 kts | 304° |
| 2026-04-23 20:13 | 60.31002 | 24.93705 | 160 ft | 6 kts | 312° |
| 2026-04-23 20:13 | 60.31049 | 24.93629 | 159 ft | 12 kts | 332° |
| 2026-04-23 20:13 | 60.31143 | 24.93662 | 158 ft | 14 kts | 39° |
| 2026-04-23 20:14 | 60.31179 | 24.93750 | 158 ft | 8 kts | 49° |
| 2026-04-23 20:14 | 60.31322 | 24.94062 | 161 ft | 66 kts | 47° |
| 2026-04-23 20:14 | 60.31781 | 24.95077 | 174 ft | 127 kts | 48° |
| 2026-04-23 20:14 | 60.32487 | 24.96635 | 259 ft | 165 kts | 46° |
| 2026-04-23 20:15 | 60.33239 | 24.98302 | 977 ft | 159 kts | 46° |
| 2026-04-23 20:15 | 60.33977 | 24.99981 | 1620 ft | 163 kts | 46° |
| 2026-04-23 20:15 | 60.34760 | 25.01767 | 2064 ft | 179 kts | 44° |
| 2026-04-23 20:15 | 60.35655 | 25.03729 | 2396 ft | 202 kts | 44° |
| 2026-04-23 20:16 | 60.36672 | 25.05938 | 2769 ft | 227 kts | 44° |
| 2026-04-23 20:16 | 60.37798 | 25.08387 | 3286 ft | 247 kts | 44° |
| 2026-04-23 20:16 | 60.39001 | 25.10950 | 3859 ft | 254 kts | 38° |
| 2026-04-23 20:16 | 60.40514 | 25.12632 | 4001 ft | 247 kts | 11° |
| 2026-04-23 20:17 | 60.42239 | 25.12847 | 4666 ft | 248 kts | 358° |
| 2026-04-23 20:17 | 60.43969 | 25.12882 | 5671 ft | 249 kts | 359° |
| 2026-04-23 20:17 | 60.45690 | 25.12950 | 6581 ft | 252 kts | 359° |
| 2026-04-23 20:17 | 60.47451 | 25.13028 | 7484 ft | 254 kts | 359° |
| 2026-04-23 20:18 | 60.49223 | 25.13092 | 8409 ft | 254 kts | 357° |
| 2026-04-23 20:18 | 60.50974 | 25.12594 | 9319 ft | 255 kts | 344° |
| 2026-04-23 20:18 | 60.52625 | 25.11230 | 10127 ft | 260 kts | 335° |
| 2026-04-23 20:18 | 60.54325 | 25.09576 | 10410 ft | 282 kts | 336° |
| 2026-04-23 20:19 | 60.56159 | 25.07802 | 10812 ft | 297 kts | 336° |
| 2026-04-23 20:19 | 60.58039 | 25.05982 | 11533 ft | 301 kts | 336° |
| 2026-04-23 20:19 | 60.59940 | 25.04139 | 12348 ft | 303 kts | 336° |
| 2026-04-23 20:19 | 60.61844 | 25.02291 | 13168 ft | 304 kts | 336° |
| 2026-04-23 20:20 | 60.63754 | 25.00438 | 13941 ft | 305 kts | 336° |
| 2026-04-23 20:20 | 60.65675 | 24.98571 | 14652 ft | 306 kts | 336° |
| 2026-04-23 20:20 | 60.67576 | 24.96721 | 15351 ft | 307 kts | 336° |
| 2026-04-23 20:20 | 60.69510 | 24.94834 | 16055 ft | 308 kts | 336° |
| 2026-04-23 20:21 | 60.71445 | 24.92945 | 16749 ft | 309 kts | 336° |
| 2026-04-23 20:21 | 60.73392 | 24.91044 | 17446 ft | 310 kts | 336° |
| 2026-04-23 20:21 | 60.75342 | 24.89135 | 18129 ft | 312 kts | 336° |
| 2026-04-23 20:21 | 60.77306 | 24.87209 | 18725 ft | 313 kts | 336° |
| 2026-04-23 20:22 | 60.79275 | 24.85279 | 19328 ft | 314 kts | 336° |
| 2026-04-23 20:22 | 60.81285 | 24.83667 | 19912 ft | 314 kts | 346° |
| 2026-04-23 20:22 | 60.83446 | 24.82994 | 20547 ft | 316 kts | 356° |
| 2026-04-23 20:22 | 60.85650 | 24.83293 | 21170 ft | 319 kts | 3° |
| 2026-04-23 20:23 | 60.87857 | 24.83821 | 21787 ft | 319 kts | 3° |
| 2026-04-23 20:23 | 60.90072 | 24.84350 | 22383 ft | 320 kts | 3° |
| 2026-04-23 20:23 | 60.92292 | 24.84880 | 22945 ft | 321 kts | 3° |
| 2026-04-23 20:23 | 60.94518 | 24.85407 | 23492 ft | 323 kts | 3° |
| 2026-04-23 20:24 | 60.96754 | 24.85932 | 23946 ft | 324 kts | 2° |
| 2026-04-23 20:24 | 60.98993 | 24.86460 | 24340 ft | 325 kts | 2° |
| 2026-04-23 20:24 | 61.01240 | 24.86994 | 24769 ft | 326 kts | 2° |
| 2026-04-23 20:24 | 61.03501 | 24.87530 | 25182 ft | 327 kts | 2° |
| 2026-04-23 20:25 | 61.05735 | 24.88059 | 25588 ft | 328 kts | 2° |
| 2026-04-23 20:25 | 61.08005 | 24.88599 | 25992 ft | 329 kts | 2° |
| 2026-04-23 20:25 | 61.10286 | 24.89139 | 26395 ft | 330 kts | 2° |
| 2026-04-23 20:25 | 61.12577 | 24.89682 | 26782 ft | 332 kts | 2° |
| 2026-04-23 20:26 | 61.14879 | 24.90234 | 27227 ft | 333 kts | 2° |
| 2026-04-23 20:26 | 61.17180 | 24.90793 | 27624 ft | 333 kts | 2° |
| 2026-04-23 20:26 | 61.19488 | 24.91355 | 28002 ft | 335 kts | 2° |
| 2026-04-23 20:26 | 61.21805 | 24.91917 | 28353 ft | 336 kts | 2° |
| 2026-04-23 20:27 | 61.24127 | 24.92478 | 28704 ft | 337 kts | 1° |
| 2026-04-23 20:27 | 61.26458 | 24.93043 | 29041 ft | 338 kts | 1° |
| 2026-04-23 20:27 | 61.28802 | 24.93608 | 29367 ft | 339 kts | 1° |
| 2026-04-23 20:27 | 61.31148 | 24.94173 | 29677 ft | 340 kts | 1° |
| 2026-04-23 20:28 | 61.33505 | 24.94745 | 29972 ft | 342 kts | 1° |
| 2026-04-23 20:28 | 61.35875 | 24.95322 | 30204 ft | 344 kts | 1° |
| 2026-04-23 20:28 | 61.38258 | 24.95904 | 30419 ft | 345 kts | 1° |
| 2026-04-23 20:28 | 61.40653 | 24.96489 | 30628 ft | 347 kts | 1° |
| 2026-04-23 20:29 | 61.43057 | 24.97077 | 30821 ft | 349 kts | 1° |
| 2026-04-23 20:29 | 61.45471 | 24.97666 | 31103 ft | 349 kts | 1° |
| 2026-04-23 20:29 | 61.47884 | 24.98260 | 31410 ft | 349 kts | 1° |
| 2026-04-23 20:29 | 61.50289 | 24.98853 | 31696 ft | 348 kts | 1° |
| 2026-04-23 20:30 | 61.52697 | 24.99448 | 31966 ft | 348 kts | 1° |
| 2026-04-23 20:30 | 61.57482 | 25.00630 | 32497 ft | 348 kts | 1° |
| 2026-04-23 20:30 | 61.59889 | 25.01220 | 32767 ft | 348 kts | 1° |
| 2026-04-23 20:31 | 61.62221 | 25.01023 | 33295 ft | 319 kts | 335° |
| 2026-04-23 20:31 | 61.64092 | 24.99506 | 35146 ft | 279 kts | 348° |
| 2026-04-23 20:31 | 61.66029 | 24.99343 | 35471 ft | 280 kts | 1° |
| 2026-04-23 20:31 | 61.67969 | 24.99978 | 35702 ft | 283 kts | 5° |
| 2026-04-23 20:32 | 61.69912 | 25.00737 | 35793 ft | 286 kts | 4° |
| 2026-04-23 20:32 | 61.71901 | 25.01368 | 35813 ft | 292 kts | 2° |
| 2026-04-23 20:32 | 61.73940 | 25.01806 | 35809 ft | 298 kts | 0° |
| 2026-04-23 20:32 | 61.76031 | 25.02081 | 35818 ft | 304 kts | 359° |
| 2026-04-23 20:33 | 61.80360 | 25.02337 | 35814 ft | 318 kts | 357° |
| 2026-04-23 20:33 | 61.84877 | 25.02469 | 35801 ft | 330 kts | 357° |
| 2026-04-23 20:34 | 61.89520 | 25.02600 | 35813 ft | 342 kts | 358° |
| 2026-04-23 20:34 | 61.94369 | 25.02787 | 35819 ft | 354 kts | 358° |
| 2026-04-23 20:35 | 61.99359 | 25.03002 | 35823 ft | 362 kts | 358° |
| 2026-04-23 20:35 | 62.04402 | 25.03193 | 35815 ft | 363 kts | 358° |
| 2026-04-23 20:36 | 62.09449 | 25.03377 | 35857 ft | 363 kts | 358° |
| 2026-04-23 20:36 | 62.14510 | 25.03584 | 35820 ft | 363 kts | 358° |
| 2026-04-23 20:37 | 62.19571 | 25.03779 | 35820 ft | 363 kts | 357° |
| 2026-04-23 20:37 | 62.24622 | 25.03962 | 35815 ft | 363 kts | 358° |
| 2026-04-23 20:38 | 62.29649 | 25.04159 | 35809 ft | 364 kts | 358° |
| 2026-04-23 20:38 | 62.34717 | 25.04346 | 35808 ft | 364 kts | 357° |
| 2026-04-23 20:39 | 62.39793 | 25.04533 | 35800 ft | 366 kts | 358° |
| 2026-04-23 20:39 | 62.44898 | 25.04735 | 35799 ft | 368 kts | 358° |
| 2026-04-23 20:40 | 62.50024 | 25.04946 | 35797 ft | 369 kts | 358° |
| 2026-04-23 20:40 | 62.55170 | 25.05157 | 35750 ft | 370 kts | 357° |
| 2026-04-23 20:41 | 62.60331 | 25.05354 | 35796 ft | 372 kts | 358° |
| 2026-04-23 20:41 | 62.65506 | 25.05558 | 35817 ft | 372 kts | 358° |
| 2026-04-23 20:42 | 62.70692 | 25.05757 | 35818 ft | 372 kts | 358° |
| 2026-04-23 20:42 | 62.75875 | 25.05948 | 35853 ft | 373 kts | 357° |
| 2026-04-23 20:43 | 62.81075 | 25.06146 | 35825 ft | 374 kts | 357° |
| 2026-04-23 20:43 | 62.86261 | 25.06347 | 35807 ft | 376 kts | 357° |
| 2026-04-23 20:44 | 62.91513 | 25.06561 | 35802 ft | 378 kts | 357° |
| 2026-04-23 20:44 | 62.96785 | 25.06781 | 35805 ft | 379 kts | 357° |
| 2026-04-23 20:45 | 63.01203 | 25.06974 | 35809 ft | 379 kts | 357° |
| 2026-04-23 20:45 | 63.06449 | 25.07186 | 35815 ft | 380 kts | 357° |
| 2026-04-23 20:46 | 63.11742 | 25.07394 | 35834 ft | 381 kts | 357° |
| 2026-04-23 20:46 | 63.17046 | 25.07619 | 35823 ft | 381 kts | 357° |
| 2026-04-23 20:47 | 63.22359 | 25.07829 | 35821 ft | 382 kts | 357° |
| 2026-04-23 20:47 | 63.27670 | 25.08054 | 35816 ft | 382 kts | 357° |
| 2026-04-23 20:48 | 63.32974 | 25.08267 | 35780 ft | 381 kts | 357° |
| 2026-04-23 20:48 | 63.38284 | 25.08480 | 35795 ft | 381 kts | 357° |
| 2026-04-23 20:49 | 63.43581 | 25.08690 | 35839 ft | 381 kts | 357° |
| 2026-04-23 20:49 | 63.48864 | 25.08900 | 35827 ft | 382 kts | 357° |
| 2026-04-23 20:50 | 63.54176 | 25.09114 | 35821 ft | 382 kts | 357° |
| 2026-04-23 20:50 | 63.59488 | 25.09341 | 35817 ft | 382 kts | 357° |
| 2026-04-23 20:51 | 63.64803 | 25.09577 | 35811 ft | 382 kts | 357° |
| 2026-04-23 20:51 | 63.70117 | 25.09793 | 35806 ft | 382 kts | 357° |
| 2026-04-23 20:52 | 63.75434 | 25.10009 | 35850 ft | 383 kts | 357° |
| 2026-04-23 20:52 | 63.80749 | 25.10230 | 35794 ft | 381 kts | 357° |
| 2026-04-23 20:53 | 63.86063 | 25.10442 | 35785 ft | 382 kts | 357° |
| 2026-04-23 20:53 | 63.91376 | 25.10663 | 35788 ft | 382 kts | 357° |
| 2026-04-23 20:54 | 63.96694 | 25.10912 | 35783 ft | 382 kts | 357° |
| 2026-04-23 20:54 | 64.01988 | 25.11139 | 35786 ft | 383 kts | 357° |
| 2026-04-23 20:55 | 64.07343 | 25.11354 | 35760 ft | 382 kts | 357° |
| 2026-04-23 20:55 | 64.12631 | 25.11568 | 35798 ft | 383 kts | 357° |
| 2026-04-23 20:56 | 64.18002 | 25.11798 | 35799 ft | 383 kts | 357° |
| 2026-04-23 20:56 | 64.23337 | 25.12034 | 35789 ft | 384 kts | 357° |
| 2026-04-23 20:57 | 64.28639 | 25.12254 | 35787 ft | 384 kts | 357° |
| 2026-04-23 20:57 | 64.33978 | 25.12482 | 35785 ft | 384 kts | 357° |
| 2026-04-23 20:58 | 64.39317 | 25.12709 | 35777 ft | 384 kts | 357° |
| 2026-04-23 20:58 | 64.44654 | 25.12930 | 35800 ft | 385 kts | 357° |
| 2026-04-23 20:59 | 64.50028 | 25.12969 | 35785 ft | 385 kts | 356° |
| 2026-04-23 20:59 | 64.55389 | 25.12911 | 35778 ft | 385 kts | 356° |
| 2026-04-23 21:00 | 64.60755 | 25.12880 | 35774 ft | 385 kts | 356° |
| 2026-04-23 21:00 | 64.66095 | 25.12884 | 35749 ft | 387 kts | 356° |
| 2026-04-23 21:01 | 64.71491 | 25.12891 | 35743 ft | 388 kts | 356° |
| 2026-04-23 21:01 | 64.76912 | 25.12896 | 35789 ft | 390 kts | 356° |
| 2026-04-23 21:02 | 64.82365 | 25.12912 | 35721 ft | 392 kts | 356° |
| 2026-04-23 21:02 | 64.87794 | 25.12922 | 35728 ft | 392 kts | 356° |
| 2026-04-23 21:03 | 64.93259 | 25.12915 | 35734 ft | 393 kts | 356° |
| 2026-04-23 21:03 | 64.98733 | 25.12895 | 35739 ft | 393 kts | 356° |
| 2026-04-23 21:04 | 65.04214 | 25.12899 | 35742 ft | 394 kts | 356° |
| 2026-04-23 21:04 | 65.09699 | 25.12915 | 35743 ft | 394 kts | 356° |
| 2026-04-23 21:05 | 65.15173 | 25.12917 | 35761 ft | 392 kts | 356° |
| 2026-04-23 21:05 | 65.17900 | 25.12911 | 35360 ft | 387 kts | 356° |
| 2026-04-23 21:05 | 65.20569 | 25.12902 | 34149 ft | 381 kts | 355° |
| 2026-04-23 21:06 | 65.23201 | 25.12892 | 32810 ft | 373 kts | 355° |
| 2026-04-23 21:06 | 65.25764 | 25.12882 | 31409 ft | 365 kts | 355° |
| 2026-04-23 21:06 | 65.28265 | 25.12872 | 30123 ft | 354 kts | 355° |
| 2026-04-23 21:06 | 65.30676 | 25.12864 | 29521 ft | 341 kts | 355° |
| 2026-04-23 21:07 | 65.33043 | 25.12848 | 29164 ft | 339 kts | 354° |
| 2026-04-23 21:07 | 65.35400 | 25.12829 | 28267 ft | 337 kts | 354° |
| 2026-04-23 21:07 | 65.37703 | 25.12815 | 27451 ft | 333 kts | 354° |
| 2026-04-23 21:07 | 65.40015 | 25.12805 | 26601 ft | 330 kts | 354° |
| 2026-04-23 21:08 | 65.42314 | 25.12791 | 25705 ft | 330 kts | 354° |
| 2026-04-23 21:08 | 65.44614 | 25.12773 | 24838 ft | 330 kts | 354° |
| 2026-04-23 21:08 | 65.46905 | 25.12754 | 24051 ft | 330 kts | 354° |
| 2026-04-23 21:08 | 65.49193 | 25.12737 | 23275 ft | 328 kts | 354° |
| 2026-04-23 21:09 | 65.51468 | 25.12731 | 22521 ft | 325 kts | 354° |
| 2026-04-23 21:09 | 65.53715 | 25.12730 | 21871 ft | 322 kts | 354° |
| 2026-04-23 21:09 | 65.55954 | 25.12722 | 21251 ft | 322 kts | 355° |
| 2026-04-23 21:09 | 65.58169 | 25.12710 | 20642 ft | 322 kts | 355° |
| 2026-04-23 21:10 | 65.60447 | 25.12696 | 20028 ft | 323 kts | 355° |
| 2026-04-23 21:10 | 65.62667 | 25.12683 | 19444 ft | 324 kts | 355° |
| 2026-04-23 21:10 | 65.64958 | 25.12670 | 18836 ft | 325 kts | 356° |
| 2026-04-23 21:10 | 65.67197 | 25.12655 | 18257 ft | 327 kts | 356° |
| 2026-04-23 21:11 | 65.69467 | 25.12640 | 17638 ft | 327 kts | 356° |
| 2026-04-23 21:11 | 65.71753 | 25.12625 | 17055 ft | 327 kts | 356° |
| 2026-04-23 21:11 | 65.74030 | 25.12611 | 16524 ft | 326 kts | 356° |
| 2026-04-23 21:11 | 65.76295 | 25.12595 | 15989 ft | 325 kts | 356° |
| 2026-04-23 21:12 | 65.78555 | 25.12584 | 15494 ft | 324 kts | 356° |
| 2026-04-23 21:12 | 65.80808 | 25.12574 | 14999 ft | 323 kts | 356° |
| 2026-04-23 21:12 | 65.83060 | 25.12565 | 14506 ft | 322 kts | 356° |
| 2026-04-23 21:12 | 65.85298 | 25.12557 | 14018 ft | 321 kts | 356° |
| 2026-04-23 21:13 | 65.87533 | 25.12550 | 13498 ft | 321 kts | 356° |
| 2026-04-23 21:13 | 65.89733 | 25.12540 | 12964 ft | 320 kts | 356° |
| 2026-04-23 21:13 | 65.91956 | 25.12530 | 12412 ft | 319 kts | 356° |
| 2026-04-23 21:13 | 65.94177 | 25.12519 | 11864 ft | 319 kts | 356° |
| 2026-04-23 21:14 | 65.96391 | 25.12505 | 11287 ft | 318 kts | 357° |
| 2026-04-23 21:14 | 65.98589 | 25.12492 | 10846 ft | 312 kts | 357° |
| 2026-04-23 21:14 | 66.00711 | 25.12485 | 10716 ft | 297 kts | 357° |
| 2026-04-23 21:14 | 66.02724 | 25.12478 | 10592 ft | 283 kts | 357° |
| 2026-04-23 21:15 | 66.04654 | 25.12470 | 10464 ft | 271 kts | 357° |
| 2026-04-23 21:15 | 66.06501 | 25.12464 | 10310 ft | 261 kts | 357° |
| 2026-04-23 21:15 | 66.08294 | 25.12453 | 10056 ft | 255 kts | 357° |
| 2026-04-23 21:15 | 66.10059 | 25.12629 | 9803 ft | 255 kts | 5° |
| 2026-04-23 21:16 | 66.11779 | 25.13825 | 9711 ft | 259 kts | 19° |
| 2026-04-23 21:16 | 66.13384 | 25.15900 | 9584 ft | 261 kts | 24° |
| 2026-04-23 21:16 | 66.14972 | 25.18085 | 9468 ft | 261 kts | 24° |
| 2026-04-23 21:16 | 66.16564 | 25.20278 | 9336 ft | 262 kts | 24° |
| 2026-04-23 21:17 | 66.18154 | 25.22469 | 9200 ft | 261 kts | 24° |
| 2026-04-23 21:17 | 66.19741 | 25.24662 | 9061 ft | 261 kts | 24° |
| 2026-04-23 21:17 | 66.21323 | 25.26849 | 8877 ft | 261 kts | 24° |
| 2026-04-23 21:17 | 66.22879 | 25.29006 | 8557 ft | 257 kts | 24° |
| 2026-04-23 21:18 | 66.24434 | 25.31165 | 8172 ft | 255 kts | 24° |
| 2026-04-23 21:18 | 66.25956 | 25.33278 | 7803 ft | 244 kts | 24° |
| 2026-04-23 21:18 | 66.27387 | 25.35291 | 7461 ft | 230 kts | 24° |
| 2026-04-23 21:18 | 66.28749 | 25.37197 | 7133 ft | 219 kts | 24° |
| 2026-04-23 21:19 | 66.30047 | 25.39004 | 6824 ft | 209 kts | 23° |
| 2026-04-23 21:19 | 66.31288 | 25.40732 | 6527 ft | 200 kts | 23° |
| 2026-04-23 21:19 | 66.32472 | 25.42382 | 6273 ft | 189 kts | 23° |
| 2026-04-23 21:19 | 66.33582 | 25.43938 | 5972 ft | 178 kts | 23° |
| 2026-04-23 21:20 | 66.34615 | 25.45389 | 5706 ft | 163 kts | 22° |
| 2026-04-23 21:20 | 66.35538 | 25.46695 | 5488 ft | 144 kts | 22° |
| 2026-04-23 21:20 | 66.36379 | 25.47881 | 5281 ft | 136 kts | 22° |
| 2026-04-23 21:20 | 66.37203 | 25.49030 | 5091 ft | 134 kts | 22° |
| 2026-04-23 21:21 | 66.38017 | 25.50165 | 5039 ft | 135 kts | 22° |
| 2026-04-23 21:21 | 66.38839 | 25.51313 | 4901 ft | 135 kts | 22° |
| 2026-04-23 21:21 | 66.39653 | 25.52452 | 4743 ft | 134 kts | 22° |
| 2026-04-23 21:21 | 66.40468 | 25.53592 | 4562 ft | 134 kts | 22° |
| 2026-04-23 21:22 | 66.41278 | 25.54728 | 4371 ft | 134 kts | 22° |
| 2026-04-23 21:22 | 66.42085 | 25.55868 | 4170 ft | 133 kts | 24° |
| 2026-04-23 21:22 | 66.42837 | 25.57253 | 3975 ft | 133 kts | 30° |
| 2026-04-23 21:22 | 66.43572 | 25.58644 | 3778 ft | 132 kts | 30° |
| 2026-04-23 21:23 | 66.44303 | 25.60024 | 3597 ft | 131 kts | 29° |
| 2026-04-23 21:23 | 66.45033 | 25.61395 | 3397 ft | 130 kts | 30° |
| 2026-04-23 21:23 | 66.45758 | 25.62756 | 3209 ft | 130 kts | 30° |
| 2026-04-23 21:23 | 66.46478 | 25.64109 | 3019 ft | 130 kts | 30° |
| 2026-04-23 21:24 | 66.47192 | 25.65444 | 2828 ft | 130 kts | 30° |
| 2026-04-23 21:24 | 66.47923 | 25.66814 | 2630 ft | 129 kts | 30° |
| 2026-04-23 21:24 | 66.48643 | 25.68168 | 2441 ft | 129 kts | 30° |
| 2026-04-23 21:24 | 66.49348 | 25.69504 | 2250 ft | 129 kts | 31° |
| 2026-04-23 21:25 | 66.50065 | 25.70862 | 2065 ft | 129 kts | 30° |
| 2026-04-23 21:25 | 66.50777 | 25.72208 | 1881 ft | 128 kts | 31° |
| 2026-04-23 21:25 | 66.51490 | 25.73556 | 1693 ft | 128 kts | 31° |
| 2026-04-23 21:25 | 66.51958 | 25.74446 | 1569 ft | 128 kts | 31° |
| 2026-04-23 21:26 | 66.52909 | 25.76253 | 1300 ft | 129 kts | 32° |
| 2026-04-23 21:26 | 66.53625 | 25.77612 | 1101 ft | 128 kts | 32° |
| 2026-04-23 21:26 | 66.54334 | 25.78967 | 907 ft | 129 kts | 33° |
| 2026-04-23 21:26 | 66.55048 | 25.80344 | 752 ft | 130 kts | 29° |
| 2026-04-23 21:27 | 66.55768 | 25.81703 | 613 ft | 127 kts | 33° |
| 2026-04-23 21:27 | 66.56367 | 25.82806 | 620 ft | 78 kts | 38° |
| 2026-04-23 21:27 | 66.56557 | 25.83183 | 618 ft | 3 kts | 39° |
| 2026-04-23 21:27 | 66.56619 | 25.83358 | 618 ft | 22 kts | 76° |
| 2026-04-23 21:28 | 66.56549 | 25.83638 | 614 ft | 16 kts | 158° |
| 2026-04-23 21:28 | 66.56462 | 25.83551 | 618 ft | 12 kts | 218° |
| 2026-04-23 21:28 | 66.56401 | 25.83434 | 617 ft | 10 kts | 217° |
| 2026-04-23 21:28 | 66.56345 | 25.83332 | 618 ft | 11 kts | 216° |
| 2026-04-23 21:29 | 66.56266 | 25.83182 | 613 ft | 17 kts | 218° |
| 2026-04-23 21:29 | 66.56165 | 25.82987 | 613 ft | 18 kts | 217° |
| 2026-04-23 21:29 | 66.56065 | 25.82796 | 611 ft | 18 kts | 217° |
| 2026-04-23 21:29 | 66.55973 | 25.82630 | 610 ft | 13 kts | 200° |
| 2026-04-23 21:30 | 66.55929 | 25.82652 | 610 ft | 4 kts | 157° |
| 2026-04-23 21:30 | 66.55914 | 25.82668 | 609 ft | 4 kts | 156° |
| 2026-04-23 21:30 | 66.55886 | 25.82701 | 610 ft | 5 kts | 154° |
| 2026-04-23 21:30 | 66.55865 | 25.82724 | 610 ft | 2 kts | 155° |
| 2026-04-23 21:31 | 66.55862 | 25.82728 | 610 ft | 0 kts | 155° |